sensor_id;sensor_type;location;lat;lon;timestamp;temperature;humidity
25877;DHT22;13692;47.480;19.216;2022-11-15T00:00:51;4.80;99.90
25877;DHT22;13692;47.480;19.216;2022-11-15T00:03:25;4.70;99.90
25877;DHT22;13692;47.480;19.216;2022-11-15T00:05:52;4.60;99.90
25877;DHT22;13692;47.480;19.216;2022-11-15T00:08:20;4.60;99.90
25877;DHT22;13692;47.480;19.216;2022-11-15T00:11:00;4.60;99.90
25877;DHT22;13692;47.480;19.216;2022-11-15T00:13:28;4.70;99.90
25877;DHT22;13692;47.480;19.216;2022-11-15T00:16:00;4.70;99.90
25877;DHT22;13692;47.480;19.216;2022-11-15T00:18:27;4.70;99.90
25877;DHT22;13692;47.480;19.216;2022-11-15T00:20:55;4.80;99.90
25877;DHT22;13692;47.480;19.216;2022-11-15T00:23:23;4.60;99.90
25877;DHT22;13692;47.480;19.216;2022-11-15T00:25:57;4.50;99.90
25877;DHT22;13692;47.480;19.216;2022-11-15T00:28:25;4.50;99.90
25877;DHT22;13692;47.480;19.216;2022-11-15T00:30:52;4.50;99.90
25877;DHT22;13692;47.480;19.216;2022-11-15T00:33:19;4.50;99.90
25877;DHT22;13692;47.480;19.216;2022-11-15T00:35:46;4.60;99.90
25877;DHT22;13692;47.480;19.216;2022-11-15T00:38:14;4.70;99.90
25877;DHT22;13692;47.480;19.216;2022-11-15T00:40:41;4.70;99.90
25877;DHT22;13692;47.480;19.216;2022-11-15T00:43:08;4.70;99.90
25877;DHT22;13692;47.480;19.216;2022-11-15T00:45:35;4.70;99.90
25877;DHT22;13692;47.480;19.216;2022-11-15T00:48:02;4.80;99.90
25877;DHT22;13692;47.480;19.216;2022-11-15T00:50:29;4.90;99.90
25877;DHT22;13692;47.480;19.216;2022-11-15T00:52:56;5.00;99.90
25877;DHT22;13692;47.480;19.216;2022-11-15T00:55:23;5.00;99.90
25877;DHT22;13692;47.480;19.216;2022-11-15T00:57:50;5.10;99.90
25877;DHT22;13692;47.480;19.216;2022-11-15T01:00:17;5.20;99.90
25877;DHT22;13692;47.480;19.216;2022-11-15T01:02:44;5.20;99.90
25877;DHT22;13692;47.480;19.216;2022-11-15T01:05:11;5.20;99.90
25877;DHT22;13692;47.480;19.216;2022-11-15T01:07:38;5.30;99.90
25877;DHT22;13692;47.480;19.216;2022-11-15T01:10:05;5.30;99.90
25877;DHT22;13692;47.480;19.216;2022-11-15T01:12:32;5.20;99.90
25877;DHT22;13692;47.480;19.216;2022-11-15T01:14:59;5.30;99.90
25877;DHT22;13692;47.480;19.216;2022-11-15T01:17:26;5.40;99.90
25877;DHT22;13692;47.480;19.216;2022-11-15T01:19:53;5.40;99.90
25877;DHT22;13692;47.480;19.216;2022-11-15T01:22:20;5.50;99.90
25877;DHT22;13692;47.480;19.216;2022-11-15T01:24:46;5.40;99.90
25877;DHT22;13692;47.480;19.216;2022-11-15T01:27:13;5.40;99.90
25877;DHT22;13692;47.480;19.216;2022-11-15T01:29:40;5.50;99.90
25877;DHT22;13692;47.480;19.216;2022-11-15T01:32:07;5.60;99.90
25877;DHT22;13692;47.480;19.216;2022-11-15T01:34:35;5.50;99.90
25877;DHT22;13692;47.480;19.216;2022-11-15T01:37:02;5.50;99.90
25877;DHT22;13692;47.480;19.216;2022-11-15T01:39:29;5.60;99.90
25877;DHT22;13692;47.480;19.216;2022-11-15T01:41:58;5.50;99.90
25877;DHT22;13692;47.480;19.216;2022-11-15T01:44:49;5.40;99.90
25877;DHT22;13692;47.480;19.216;2022-11-15T01:47:20;5.40;99.90
25877;DHT22;13692;47.480;19.216;2022-11-15T01:49:57;5.50;99.90
25877;DHT22;13692;47.480;19.216;2022-11-15T01:52:28;5.50;99.90
25877;DHT22;13692;47.480;19.216;2022-11-15T01:58:07;5.50;99.90
25877;DHT22;13692;47.480;19.216;2022-11-15T02:00:34;5.70;99.90
25877;DHT22;13692;47.480;19.216;2022-11-15T02:03:02;5.70;99.90
25877;DHT22;13692;47.480;19.216;2022-11-15T02:05:30;5.80;99.90
25877;DHT22;13692;47.480;19.216;2022-11-15T02:07:59;5.80;99.90
25877;DHT22;13692;47.480;19.216;2022-11-15T02:10:28;5.80;99.90
25877;DHT22;13692;47.480;19.216;2022-11-15T02:12:56;5.80;99.90
25877;DHT22;13692;47.480;19.216;2022-11-15T02:15:28;5.90;99.90
25877;DHT22;13692;47.480;19.216;2022-11-15T02:18:16;5.90;99.90
25877;DHT22;13692;47.480;19.216;2022-11-15T02:26:58;6.00;99.90
25877;DHT22;13692;47.480;19.216;2022-11-15T02:43:12;5.70;99.90
25877;DHT22;13692;47.480;19.216;2022-11-15T02:49:47;5.80;99.90
25877;DHT22;13692;47.480;19.216;2022-11-15T02:52:16;5.90;99.90
25877;DHT22;13692;47.480;19.216;2022-11-15T02:54:56;5.90;99.90
25877;DHT22;13692;47.480;19.216;2022-11-15T03:00:10;5.90;99.90
25877;DHT22;13692;47.480;19.216;2022-11-15T03:08:40;6.00;99.90
25877;DHT22;13692;47.480;19.216;2022-11-15T03:11:15;6.10;99.90
25877;DHT22;13692;47.480;19.216;2022-11-15T03:13:58;6.10;99.90
25877;DHT22;13692;47.480;19.216;2022-11-15T03:16:36;6.20;99.90
25877;DHT22;13692;47.480;19.216;2022-11-15T03:19:14;6.30;99.90
25877;DHT22;13692;47.480;19.216;2022-11-15T03:21:44;6.30;99.90
25877;DHT22;13692;47.480;19.216;2022-11-15T03:24:12;6.30;99.90
25877;DHT22;13692;47.480;19.216;2022-11-15T03:27:02;6.30;99.90
25877;DHT22;13692;47.480;19.216;2022-11-15T03:29:33;6.30;99.90
25877;DHT22;13692;47.480;19.216;2022-11-15T03:32:07;6.30;99.90
25877;DHT22;13692;47.480;19.216;2022-11-15T03:34:44;6.30;99.90
25877;DHT22;13692;47.480;19.216;2022-11-15T03:37:14;6.30;99.90
25877;DHT22;13692;47.480;19.216;2022-11-15T03:39:43;6.30;99.90
25877;DHT22;13692;47.480;19.216;2022-11-15T03:45:06;6.30;99.90
25877;DHT22;13692;47.480;19.216;2022-11-15T03:47:40;6.30;99.90
25877;DHT22;13692;47.480;19.216;2022-11-15T03:50:14;6.30;99.90
25877;DHT22;13692;47.480;19.216;2022-11-15T03:52:45;6.30;99.90
25877;DHT22;13692;47.480;19.216;2022-11-15T03:55:18;6.30;99.90
25877;DHT22;13692;47.480;19.216;2022-11-15T03:57:46;6.30;99.90
25877;DHT22;13692;47.480;19.216;2022-11-15T04:00:14;6.30;99.90
25877;DHT22;13692;47.480;19.216;2022-11-15T04:02:41;6.20;99.90
25877;DHT22;13692;47.480;19.216;2022-11-15T04:05:08;6.20;99.90
25877;DHT22;13692;47.480;19.216;2022-11-15T04:07:35;6.20;99.90
25877;DHT22;13692;47.480;19.216;2022-11-15T04:10:03;6.30;99.90
25877;DHT22;13692;47.480;19.216;2022-11-15T04:15:02;6.20;99.90
25877;DHT22;13692;47.480;19.216;2022-11-15T04:22:56;6.00;99.90
25877;DHT22;13692;47.480;19.216;2022-11-15T04:25:43;6.10;99.90
25877;DHT22;13692;47.480;19.216;2022-11-15T04:28:11;6.20;99.90
25877;DHT22;13692;47.480;19.216;2022-11-15T04:30:38;6.30;99.90
25877;DHT22;13692;47.480;19.216;2022-11-15T04:33:05;6.40;99.90
25877;DHT22;13692;47.480;19.216;2022-11-15T04:35:32;6.40;99.90
25877;DHT22;13692;47.480;19.216;2022-11-15T04:37:59;6.40;99.90
25877;DHT22;13692;47.480;19.216;2022-11-15T04:40:26;6.40;99.90
25877;DHT22;13692;47.480;19.216;2022-11-15T04:42:53;6.40;99.90
25877;DHT22;13692;47.480;19.216;2022-11-15T04:45:27;6.40;99.90
25877;DHT22;13692;47.480;19.216;2022-11-15T04:47:54;6.50;99.90
25877;DHT22;13692;47.480;19.216;2022-11-15T04:50:21;6.50;99.90
25877;DHT22;13692;47.480;19.216;2022-11-15T04:52:53;6.40;99.90
25877;DHT22;13692;47.480;19.216;2022-11-15T04:55:20;6.40;99.90
25877;DHT22;13692;47.480;19.216;2022-11-15T04:57:47;6.40;99.90
25877;DHT22;13692;47.480;19.216;2022-11-15T05:00:23;6.40;99.90
25877;DHT22;13692;47.480;19.216;2022-11-15T05:02:50;6.40;99.90
25877;DHT22;13692;47.480;19.216;2022-11-15T05:05:36;6.50;99.90
25877;DHT22;13692;47.480;19.216;2022-11-15T05:08:03;6.50;99.90
25877;DHT22;13692;47.480;19.216;2022-11-15T05:10:30;6.50;99.90
25877;DHT22;13692;47.480;19.216;2022-11-15T05:12:57;6.50;99.90
25877;DHT22;13692;47.480;19.216;2022-11-15T05:15:24;6.50;99.90
25877;DHT22;13692;47.480;19.216;2022-11-15T05:17:56;6.40;99.90
25877;DHT22;13692;47.480;19.216;2022-11-15T05:20:23;6.40;99.90
25877;DHT22;13692;47.480;19.216;2022-11-15T05:22:50;6.40;99.90
25877;DHT22;13692;47.480;19.216;2022-11-15T05:25:17;6.40;99.90
25877;DHT22;13692;47.480;19.216;2022-11-15T05:27:43;6.50;99.90
25877;DHT22;13692;47.480;19.216;2022-11-15T05:30:10;6.50;99.90
25877;DHT22;13692;47.480;19.216;2022-11-15T05:32:37;6.50;99.90
25877;DHT22;13692;47.480;19.216;2022-11-15T05:35:07;6.50;99.90
25877;DHT22;13692;47.480;19.216;2022-11-15T05:37:35;6.60;99.90
25877;DHT22;13692;47.480;19.216;2022-11-15T05:40:02;6.60;99.90
25877;DHT22;13692;47.480;19.216;2022-11-15T05:42:29;6.60;99.90
25877;DHT22;13692;47.480;19.216;2022-11-15T05:44:57;6.70;99.90
25877;DHT22;13692;47.480;19.216;2022-11-15T05:47:27;6.70;99.90
25877;DHT22;13692;47.480;19.216;2022-11-15T05:49:57;6.80;99.90
25877;DHT22;13692;47.480;19.216;2022-11-15T05:52:27;6.70;99.90
25877;DHT22;13692;47.480;19.216;2022-11-15T05:54:55;6.70;99.90
25877;DHT22;13692;47.480;19.216;2022-11-15T05:57:22;6.70;99.90
25877;DHT22;13692;47.480;19.216;2022-11-15T05:59:49;6.70;99.90
25877;DHT22;13692;47.480;19.216;2022-11-15T06:02:16;6.60;99.90
25877;DHT22;13692;47.480;19.216;2022-11-15T06:04:43;6.60;99.90
25877;DHT22;13692;47.480;19.216;2022-11-15T06:07:10;6.60;99.90
25877;DHT22;13692;47.480;19.216;2022-11-15T06:09:36;6.60;99.90
25877;DHT22;13692;47.480;19.216;2022-11-15T06:12:03;6.70;99.90
25877;DHT22;13692;47.480;19.216;2022-11-15T06:14:30;6.70;99.90
25877;DHT22;13692;47.480;19.216;2022-11-15T06:16:57;6.70;99.90
25877;DHT22;13692;47.480;19.216;2022-11-15T06:19:24;6.70;99.90
25877;DHT22;13692;47.480;19.216;2022-11-15T06:21:51;6.80;99.90
25877;DHT22;13692;47.480;19.216;2022-11-15T06:24:18;6.90;99.90
25877;DHT22;13692;47.480;19.216;2022-11-15T06:26:45;6.80;99.90
25877;DHT22;13692;47.480;19.216;2022-11-15T06:29:11;6.90;99.90
25877;DHT22;13692;47.480;19.216;2022-11-15T06:31:38;6.90;99.90
25877;DHT22;13692;47.480;19.216;2022-11-15T06:34:05;6.90;99.90
25877;DHT22;13692;47.480;19.216;2022-11-15T06:36:34;6.90;99.90
25877;DHT22;13692;47.480;19.216;2022-11-15T06:39:05;6.90;99.90
25877;DHT22;13692;47.480;19.216;2022-11-15T06:41:35;6.70;99.90
25877;DHT22;13692;47.480;19.216;2022-11-15T06:44:03;7.00;99.90
25877;DHT22;13692;47.480;19.216;2022-11-15T06:46:29;7.00;99.90
25877;DHT22;13692;47.480;19.216;2022-11-15T06:48:57;7.10;99.90
25877;DHT22;13692;47.480;19.216;2022-11-15T06:51:23;7.10;99.90
25877;DHT22;13692;47.480;19.216;2022-11-15T06:53:50;7.10;99.90
25877;DHT22;13692;47.480;19.216;2022-11-15T06:56:17;7.20;99.90
25877;DHT22;13692;47.480;19.216;2022-11-15T06:58:45;7.20;99.90
25877;DHT22;13692;47.480;19.216;2022-11-15T07:01:12;7.20;99.90
25877;DHT22;13692;47.480;19.216;2022-11-15T07:03:41;7.20;99.90
25877;DHT22;13692;47.480;19.216;2022-11-15T07:06:09;7.20;99.90
25877;DHT22;13692;47.480;19.216;2022-11-15T07:08:36;7.30;99.90
25877;DHT22;13692;47.480;19.216;2022-11-15T07:11:06;7.30;99.90
25877;DHT22;13692;47.480;19.216;2022-11-15T07:13:34;7.30;99.90
25877;DHT22;13692;47.480;19.216;2022-11-15T07:16:07;7.40;99.90
25877;DHT22;13692;47.480;19.216;2022-11-15T07:18:38;7.40;99.90
25877;DHT22;13692;47.480;19.216;2022-11-15T07:21:07;7.30;99.90
25877;DHT22;13692;47.480;19.216;2022-11-15T07:23:39;7.40;99.90
25877;DHT22;13692;47.480;19.216;2022-11-15T07:26:07;7.40;99.90
25877;DHT22;13692;47.480;19.216;2022-11-15T07:28:34;7.30;99.90
25877;DHT22;13692;47.480;19.216;2022-11-15T07:31:05;7.40;99.90
25877;DHT22;13692;47.480;19.216;2022-11-15T07:33:33;7.40;99.90
25877;DHT22;13692;47.480;19.216;2022-11-15T07:36:02;7.40;99.90
25877;DHT22;13692;47.480;19.216;2022-11-15T07:38:30;7.40;99.90
25877;DHT22;13692;47.480;19.216;2022-11-15T07:41:04;7.40;99.90
25877;DHT22;13692;47.480;19.216;2022-11-15T07:43:31;7.40;99.90
25877;DHT22;13692;47.480;19.216;2022-11-15T07:46:05;7.40;99.90
25877;DHT22;13692;47.480;19.216;2022-11-15T07:48:34;7.40;99.90
25877;DHT22;13692;47.480;19.216;2022-11-15T07:51:12;7.60;99.90
25877;DHT22;13692;47.480;19.216;2022-11-15T07:53:41;7.70;99.90
25877;DHT22;13692;47.480;19.216;2022-11-15T07:56:08;7.80;99.90
25877;DHT22;13692;47.480;19.216;2022-11-15T07:58:36;7.90;99.90
25877;DHT22;13692;47.480;19.216;2022-11-15T08:01:04;7.90;99.90
25877;DHT22;13692;47.480;19.216;2022-11-15T08:03:32;7.90;99.90
25877;DHT22;13692;47.480;19.216;2022-11-15T08:06:00;8.00;99.90
25877;DHT22;13692;47.480;19.216;2022-11-15T08:08:27;8.00;99.90
25877;DHT22;13692;47.480;19.216;2022-11-15T08:10:54;8.00;99.90
25877;DHT22;13692;47.480;19.216;2022-11-15T08:13:21;8.00;99.90
25877;DHT22;13692;47.480;19.216;2022-11-15T08:15:48;8.00;99.90
25877;DHT22;13692;47.480;19.216;2022-11-15T08:18:22;8.10;99.90
25877;DHT22;13692;47.480;19.216;2022-11-15T08:20:49;8.10;99.90
25877;DHT22;13692;47.480;19.216;2022-11-15T08:23:16;8.00;99.90
25877;DHT22;13692;47.480;19.216;2022-11-15T08:25:43;8.10;99.90
25877;DHT22;13692;47.480;19.216;2022-11-15T08:28:10;8.10;99.90
25877;DHT22;13692;47.480;19.216;2022-11-15T08:30:40;8.20;99.90
25877;DHT22;13692;47.480;19.216;2022-11-15T08:33:13;8.20;99.90
25877;DHT22;13692;47.480;19.216;2022-11-15T08:35:41;8.20;99.90
25877;DHT22;13692;47.480;19.216;2022-11-15T08:38:09;8.30;99.90
25877;DHT22;13692;47.480;19.216;2022-11-15T08:40:36;8.30;99.90
25877;DHT22;13692;47.480;19.216;2022-11-15T08:43:03;8.30;99.90
25877;DHT22;13692;47.480;19.216;2022-11-15T08:45:31;8.20;99.90
25877;DHT22;13692;47.480;19.216;2022-11-15T08:48:01;8.30;99.90
25877;DHT22;13692;47.480;19.216;2022-11-15T08:50:28;8.30;99.90
25877;DHT22;13692;47.480;19.216;2022-11-15T08:52:55;8.40;99.90
25877;DHT22;13692;47.480;19.216;2022-11-15T08:55:21;8.40;99.90
25877;DHT22;13692;47.480;19.216;2022-11-15T08:57:50;8.40;99.90
25877;DHT22;13692;47.480;19.216;2022-11-15T09:00:17;8.40;99.90
25877;DHT22;13692;47.480;19.216;2022-11-15T09:02:46;8.40;99.90
25877;DHT22;13692;47.480;19.216;2022-11-15T09:05:14;8.50;99.90
25877;DHT22;13692;47.480;19.216;2022-11-15T09:07:42;8.50;99.90
25877;DHT22;13692;47.480;19.216;2022-11-15T09:10:09;8.50;99.90
25877;DHT22;13692;47.480;19.216;2022-11-15T09:12:36;8.60;99.90
25877;DHT22;13692;47.480;19.216;2022-11-15T09:15:04;8.60;99.90
25877;DHT22;13692;47.480;19.216;2022-11-15T09:17:32;8.80;99.90
25877;DHT22;13692;47.480;19.216;2022-11-15T09:19:58;8.80;99.90
25877;DHT22;13692;47.480;19.216;2022-11-15T09:22:25;8.80;99.90
25877;DHT22;13692;47.480;19.216;2022-11-15T09:24:52;8.80;99.90
25877;DHT22;13692;47.480;19.216;2022-11-15T09:27:19;8.80;99.90
25877;DHT22;13692;47.480;19.216;2022-11-15T09:29:46;8.70;99.90
25877;DHT22;13692;47.480;19.216;2022-11-15T09:32:13;8.60;99.90
25877;DHT22;13692;47.480;19.216;2022-11-15T09:34:40;8.60;99.90
25877;DHT22;13692;47.480;19.216;2022-11-15T09:37:06;8.60;99.90
25877;DHT22;13692;47.480;19.216;2022-11-15T09:39:33;8.60;99.90
25877;DHT22;13692;47.480;19.216;2022-11-15T09:50:10;8.80;99.90
25877;DHT22;13692;47.480;19.216;2022-11-15T09:52:40;8.80;99.90
25877;DHT22;13692;47.480;19.216;2022-11-15T09:55:13;8.90;99.90
25877;DHT22;13692;47.480;19.216;2022-11-15T09:58:00;8.80;99.90
25877;DHT22;13692;47.480;19.216;2022-11-15T10:00:50;8.70;99.90
25877;DHT22;13692;47.480;19.216;2022-11-15T10:05:55;8.70;99.90
25877;DHT22;13692;47.480;19.216;2022-11-15T10:11:21;8.90;99.90
25877;DHT22;13692;47.480;19.216;2022-11-15T10:14:21;9.00;99.90
25877;DHT22;13692;47.480;19.216;2022-11-15T10:22:25;9.10;99.90
25877;DHT22;13692;47.480;19.216;2022-11-15T10:30:21;9.00;99.90
25877;DHT22;13692;47.480;19.216;2022-11-15T10:32:49;9.00;99.90
25877;DHT22;13692;47.480;19.216;2022-11-15T10:35:28;8.90;99.90
25877;DHT22;13692;47.480;19.216;2022-11-15T10:38:06;8.90;99.90
25877;DHT22;13692;47.480;19.216;2022-11-15T10:40:35;8.90;99.90
25877;DHT22;13692;47.480;19.216;2022-11-15T10:43:17;8.80;99.90
25877;DHT22;13692;47.480;19.216;2022-11-15T10:45:46;8.80;99.90
25877;DHT22;13692;47.480;19.216;2022-11-15T10:50:42;8.70;99.90
25877;DHT22;13692;47.480;19.216;2022-11-15T10:55:55;8.80;99.90
25877;DHT22;13692;47.480;19.216;2022-11-15T11:01:25;8.70;99.90
25877;DHT22;13692;47.480;19.216;2022-11-15T11:04:07;8.70;99.90
25877;DHT22;13692;47.480;19.216;2022-11-15T11:06:56;8.70;99.90
25877;DHT22;13692;47.480;19.216;2022-11-15T11:09:38;8.70;99.90
25877;DHT22;13692;47.480;19.216;2022-11-15T11:12:11;8.60;99.90
25877;DHT22;13692;47.480;19.216;2022-11-15T11:14:39;8.60;99.90
25877;DHT22;13692;47.480;19.216;2022-11-15T11:17:16;8.50;99.90
25877;DHT22;13692;47.480;19.216;2022-11-15T11:29:45;8.80;99.90
25877;DHT22;13692;47.480;19.216;2022-11-15T11:37:44;8.70;99.90
25877;DHT22;13692;47.480;19.216;2022-11-15T11:43:30;8.80;99.90
25877;DHT22;13692;47.480;19.216;2022-11-15T11:46:25;8.80;99.90
25877;DHT22;13692;47.480;19.216;2022-11-15T11:49:06;8.90;99.90
25877;DHT22;13692;47.480;19.216;2022-11-15T11:51:43;8.90;99.90
25877;DHT22;13692;47.480;19.216;2022-11-15T11:56:59;8.90;99.90
25877;DHT22;13692;47.480;19.216;2022-11-15T12:02:31;8.80;99.90
25877;DHT22;13692;47.480;19.216;2022-11-15T12:05:08;8.70;99.90
25877;DHT22;13692;47.480;19.216;2022-11-15T12:07:38;8.70;99.90
25877;DHT22;13692;47.480;19.216;2022-11-15T12:13:04;8.70;99.90
25877;DHT22;13692;47.480;19.216;2022-11-15T12:15:42;8.70;99.90
25877;DHT22;13692;47.480;19.216;2022-11-15T12:18:14;8.70;99.90
25877;DHT22;13692;47.480;19.216;2022-11-15T12:20:53;8.60;99.90
25877;DHT22;13692;47.480;19.216;2022-11-15T12:23:25;8.60;99.90
25877;DHT22;13692;47.480;19.216;2022-11-15T12:26:11;8.60;99.90
25877;DHT22;13692;47.480;19.216;2022-11-15T12:28:55;8.50;99.90
25877;DHT22;13692;47.480;19.216;2022-11-15T12:36:44;8.40;99.90
25877;DHT22;13692;47.480;19.216;2022-11-15T12:39:12;8.30;99.90
25877;DHT22;13692;47.480;19.216;2022-11-15T12:41:44;8.40;99.90
25877;DHT22;13692;47.480;19.216;2022-11-15T12:59:56;8.50;99.90
25877;DHT22;13692;47.480;19.216;2022-11-15T13:02:37;8.50;99.90
25877;DHT22;13692;47.480;19.216;2022-11-15T13:07:57;8.60;99.90
25877;DHT22;13692;47.480;19.216;2022-11-15T13:13:04;8.50;99.90
25877;DHT22;13692;47.480;19.216;2022-11-15T13:20:53;8.60;99.90
25877;DHT22;13692;47.480;19.216;2022-11-15T13:23:27;8.70;99.90
25877;DHT22;13692;47.480;19.216;2022-11-15T13:28:49;8.60;99.90
25877;DHT22;13692;47.480;19.216;2022-11-15T13:31:27;8.60;99.90
25877;DHT22;13692;47.480;19.216;2022-11-15T13:33:59;8.60;99.90
25877;DHT22;13692;47.480;19.216;2022-11-15T13:36:31;8.60;99.90
25877;DHT22;13692;47.480;19.216;2022-11-15T13:39:26;8.50;99.90
25877;DHT22;13692;47.480;19.216;2022-11-15T13:41:54;8.60;99.90
25877;DHT22;13692;47.480;19.216;2022-11-15T13:44:23;8.50;99.90
25877;DHT22;13692;47.480;19.216;2022-11-15T13:47:14;8.50;99.90
25877;DHT22;13692;47.480;19.216;2022-11-15T13:49:41;8.60;99.90
25877;DHT22;13692;47.480;19.216;2022-11-15T13:52:13;8.50;99.90
25877;DHT22;13692;47.480;19.216;2022-11-15T13:54:47;8.50;99.90
25877;DHT22;13692;47.480;19.216;2022-11-15T13:57:43;8.40;99.90
25877;DHT22;13692;47.480;19.216;2022-11-15T14:02:54;8.40;99.90
25877;DHT22;13692;47.480;19.216;2022-11-15T14:05:24;8.40;99.90
25877;DHT22;13692;47.480;19.216;2022-11-15T14:08:01;8.50;99.90
25877;DHT22;13692;47.480;19.216;2022-11-15T14:10:34;8.50;99.90
25877;DHT22;13692;47.480;19.216;2022-11-15T14:13:04;8.50;99.90
25877;DHT22;13692;47.480;19.216;2022-11-15T14:15:38;8.40;99.90
25877;DHT22;13692;47.480;19.216;2022-11-15T14:18:06;8.50;99.90
25877;DHT22;13692;47.480;19.216;2022-11-15T14:20:36;8.50;99.90
25877;DHT22;13692;47.480;19.216;2022-11-15T14:23:23;8.40;99.90
25877;DHT22;13692;47.480;19.216;2022-11-15T14:25:57;8.40;99.90
25877;DHT22;13692;47.480;19.216;2022-11-15T14:30:53;8.40;99.90
25877;DHT22;13692;47.480;19.216;2022-11-15T14:33:30;8.40;99.90
25877;DHT22;13692;47.480;19.216;2022-11-15T14:36:05;8.40;99.90
25877;DHT22;13692;47.480;19.216;2022-11-15T14:38:33;8.30;99.90
25877;DHT22;13692;47.480;19.216;2022-11-15T14:41:00;8.30;99.90
25877;DHT22;13692;47.480;19.216;2022-11-15T14:43:27;8.30;99.90
25877;DHT22;13692;47.480;19.216;2022-11-15T14:45:54;8.40;99.90
25877;DHT22;13692;47.480;19.216;2022-11-15T14:48:21;8.40;99.90
25877;DHT22;13692;47.480;19.216;2022-11-15T14:50:48;8.40;99.90
25877;DHT22;13692;47.480;19.216;2022-11-15T14:53:16;8.40;99.90
25877;DHT22;13692;47.480;19.216;2022-11-15T14:55:44;8.40;99.90
25877;DHT22;13692;47.480;19.216;2022-11-15T14:58:11;8.40;99.90
25877;DHT22;13692;47.480;19.216;2022-11-15T15:00:39;8.30;99.90
25877;DHT22;13692;47.480;19.216;2022-11-15T15:03:07;8.30;99.90
25877;DHT22;13692;47.480;19.216;2022-11-15T15:05:40;8.30;99.90
25877;DHT22;13692;47.480;19.216;2022-11-15T15:08:08;8.30;99.90
25877;DHT22;13692;47.480;19.216;2022-11-15T15:10:38;8.30;99.90
25877;DHT22;13692;47.480;19.216;2022-11-15T15:13:20;8.30;99.90
25877;DHT22;13692;47.480;19.216;2022-11-15T15:15:49;8.30;99.90
25877;DHT22;13692;47.480;19.216;2022-11-15T15:18:17;8.30;99.90
25877;DHT22;13692;47.480;19.216;2022-11-15T15:20:57;8.40;99.90
25877;DHT22;13692;47.480;19.216;2022-11-15T15:23:29;8.40;99.90
25877;DHT22;13692;47.480;19.216;2022-11-15T15:25:57;8.30;99.90
25877;DHT22;13692;47.480;19.216;2022-11-15T15:28:24;8.30;99.90
25877;DHT22;13692;47.480;19.216;2022-11-15T15:30:59;8.30;99.90
25877;DHT22;13692;47.480;19.216;2022-11-15T15:33:26;8.30;99.90
25877;DHT22;13692;47.480;19.216;2022-11-15T15:35:53;8.30;99.90
25877;DHT22;13692;47.480;19.216;2022-11-15T15:38:20;8.30;99.90
25877;DHT22;13692;47.480;19.216;2022-11-15T15:40:48;8.30;99.90
25877;DHT22;13692;47.480;19.216;2022-11-15T15:43:17;8.30;99.90
25877;DHT22;13692;47.480;19.216;2022-11-15T15:45:44;8.20;99.90
25877;DHT22;13692;47.480;19.216;2022-11-15T15:48:14;8.20;99.90
25877;DHT22;13692;47.480;19.216;2022-11-15T15:50:42;8.20;99.90
25877;DHT22;13692;47.480;19.216;2022-11-15T15:53:12;8.20;99.90
25877;DHT22;13692;47.480;19.216;2022-11-15T15:55:39;8.30;99.90
25877;DHT22;13692;47.480;19.216;2022-11-15T15:58:07;8.30;99.90
25877;DHT22;13692;47.480;19.216;2022-11-15T16:00:35;8.30;99.90
25877;DHT22;13692;47.480;19.216;2022-11-15T16:03:03;8.30;99.90
25877;DHT22;13692;47.480;19.216;2022-11-15T16:05:29;8.40;99.90
25877;DHT22;13692;47.480;19.216;2022-11-15T16:07:56;8.40;99.90
25877;DHT22;13692;47.480;19.216;2022-11-15T16:10:32;8.30;99.90
25877;DHT22;13692;47.480;19.216;2022-11-15T16:13:00;8.30;99.90
25877;DHT22;13692;47.480;19.216;2022-11-15T16:15:30;8.40;99.90
25877;DHT22;13692;47.480;19.216;2022-11-15T16:17:59;8.40;99.90
25877;DHT22;13692;47.480;19.216;2022-11-15T16:20:31;8.40;99.90
25877;DHT22;13692;47.480;19.216;2022-11-15T16:22:59;8.30;99.90
25877;DHT22;13692;47.480;19.216;2022-11-15T16:25:46;8.30;99.90
25877;DHT22;13692;47.480;19.216;2022-11-15T16:28:19;8.30;99.90
25877;DHT22;13692;47.480;19.216;2022-11-15T16:30:47;8.20;99.90
25877;DHT22;13692;47.480;19.216;2022-11-15T16:33:22;8.20;99.90
25877;DHT22;13692;47.480;19.216;2022-11-15T16:35:49;8.30;99.90
25877;DHT22;13692;47.480;19.216;2022-11-15T16:38:16;8.30;99.90
25877;DHT22;13692;47.480;19.216;2022-11-15T16:40:44;8.20;99.90
25877;DHT22;13692;47.480;19.216;2022-11-15T16:43:11;8.20;99.90
25877;DHT22;13692;47.480;19.216;2022-11-15T16:45:37;8.20;99.90
25877;DHT22;13692;47.480;19.216;2022-11-15T16:48:05;8.20;99.90
25877;DHT22;13692;47.480;19.216;2022-11-15T16:50:34;8.20;99.90
25877;DHT22;13692;47.480;19.216;2022-11-15T16:53:07;8.30;99.90
25877;DHT22;13692;47.480;19.216;2022-11-15T16:55:34;8.30;99.90
25877;DHT22;13692;47.480;19.216;2022-11-15T16:58:01;8.40;99.90
25877;DHT22;13692;47.480;19.216;2022-11-15T17:00:28;8.40;99.90
25877;DHT22;13692;47.480;19.216;2022-11-15T17:02:56;8.40;99.90
25877;DHT22;13692;47.480;19.216;2022-11-15T17:05:24;8.40;99.90
25877;DHT22;13692;47.480;19.216;2022-11-15T17:07:53;8.40;99.90
25877;DHT22;13692;47.480;19.216;2022-11-15T17:10:21;8.30;99.90
25877;DHT22;13692;47.480;19.216;2022-11-15T17:12:49;8.40;99.90
25877;DHT22;13692;47.480;19.216;2022-11-15T17:15:16;8.30;99.90
25877;DHT22;13692;47.480;19.216;2022-11-15T17:17:43;8.30;99.90
25877;DHT22;13692;47.480;19.216;2022-11-15T17:20:15;8.40;99.90
25877;DHT22;13692;47.480;19.216;2022-11-15T17:22:43;8.40;99.90
25877;DHT22;13692;47.480;19.216;2022-11-15T17:25:10;8.40;99.90
25877;DHT22;13692;47.480;19.216;2022-11-15T17:27:38;8.50;99.90
25877;DHT22;13692;47.480;19.216;2022-11-15T17:30:06;8.50;99.90
25877;DHT22;13692;47.480;19.216;2022-11-15T17:32:36;8.60;99.90
25877;DHT22;13692;47.480;19.216;2022-11-15T17:35:04;8.60;99.90
25877;DHT22;13692;47.480;19.216;2022-11-15T17:37:41;8.60;99.90
25877;DHT22;13692;47.480;19.216;2022-11-15T17:40:09;8.60;99.90
25877;DHT22;13692;47.480;19.216;2022-11-15T17:42:38;8.60;99.90
25877;DHT22;13692;47.480;19.216;2022-11-15T17:45:07;8.60;99.90
25877;DHT22;13692;47.480;19.216;2022-11-15T17:47:36;8.60;99.90
25877;DHT22;13692;47.480;19.216;2022-11-15T17:50:04;8.60;99.90
25877;DHT22;13692;47.480;19.216;2022-11-15T17:52:31;8.60;99.90
25877;DHT22;13692;47.480;19.216;2022-11-15T17:54:57;8.60;99.90
25877;DHT22;13692;47.480;19.216;2022-11-15T17:57:24;8.50;99.90
25877;DHT22;13692;47.480;19.216;2022-11-15T17:59:51;8.50;99.90
25877;DHT22;13692;47.480;19.216;2022-11-15T18:02:19;8.50;99.90
25877;DHT22;13692;47.480;19.216;2022-11-15T18:04:45;8.50;99.90
25877;DHT22;13692;47.480;19.216;2022-11-15T18:07:13;8.50;99.90
25877;DHT22;13692;47.480;19.216;2022-11-15T18:09:40;8.50;99.90
25877;DHT22;13692;47.480;19.216;2022-11-15T18:12:10;8.50;99.90
25877;DHT22;13692;47.480;19.216;2022-11-15T18:14:37;8.50;99.90